Chagrin Falls, OH (44022)

8:46 AM EST on December 25, 2014 (GMT -0500)
Bell Street Pepper Patch | Change Station
CLOSE
Current Station
Personal Weather Station
Location: Chagrin Falls, OH
Elevation: 1010 ft
Nearby Weather Stations

Elev 1010 ft 41.43 °N, 81.38 °W | Updated 5 seconds ago

Overcast
Overcast
38.3 °F
Feels Like 32 °F
N
8.3
Wind Variable Wind from NNW
Gusts 15.2 mph

Today
High -- | Low -- °F
--% Chance of Precip.
Yesterday
High -- | Low -- °F
Precip. -- in
7:50 AM 5:01 PM
Waxing Crescent, 16% visible
Pressure 29.81 in
Visibility 10.0 miles
Clouds Mostly Cloudy 2200 ft
Overcast 5000 ft
Windchill 32 °F
Dew Point 34 °F
Humidity 84%
Rainfall 0.00 in
Snow Depth Not available.
UV 0 out of 12
Pollen .10 out of 12
Air Quality Not available.
Flu Activity Not available.
METAR KCGF 251245Z 26014G24KT 10SM BKN022 OVC050 05/01 A2981

More Conditions Fewer Conditions

Pressure 29.81 in
Visibility 10.0 miles
Clouds Mostly Cloudy 2200 ft
Overcast 5000 ft
Windchill 32 °F
Dew Point 34 °F
Humidity 84%
Rainfall 0.00 in
Snow Depth Not available.
UV 0 out of 12
Pollen .10 out of 12
Air Quality Not available.
Flu Activity Not available.
METAR KCGF 251245Z 26014G24KT 10SM BKN022 OVC050 05/01 A2981

More Conditions Fewer Conditions

10-Day Weather Forecast

Almanac

Astronomy

Dec. 25, 2014 Rise Set
Actual Time
Civil Twilight
Nautical Twilight
Astronomical Twilight
Moon
Length of Visible Light
Length of Day
Tomorrow will be .
, % of the Moon is Illuminated

Today's Extremes

State Highs State Lows

Community

WunderPhotos

Upload Photos

1,780,275 photos uploaded!

WunderBlogs® & News

Nearby

Air Quality

  Air Quality AQ Index Pollutant
Not available.

Snow Depth

Station Depth Elevation

Earthquake Activity

City Distance Mag. Time & Date
Minimum magnitude displayed is 2.5.

Coastal Water Temperatures

Place Temperature

Nearby Weather Stations